sensor_id;sensor_type;location;lat;lon;timestamp;temperature;humidity
66831;DHT22;53739;44.224;22.528;2022-07-29T02:10:52;538.10;2406.40
66831;DHT22;53739;44.224;22.528;2022-07-29T02:13:31;538.10;2406.40
66831;DHT22;53739;44.224;22.528;2022-07-29T02:15:58;538.20;2406.40
66831;DHT22;53739;44.224;22.528;2022-07-29T02:18:30;538.30;2406.40
66831;DHT22;53739;44.224;22.528;2022-07-29T02:21:05;538.40;2406.40
66831;DHT22;53739;44.224;22.528;2022-07-29T02:23:42;538.40;2406.40
66831;DHT22;53739;44.224;22.528;2022-07-29T02:26:10;538.20;2406.40
66831;DHT22;53739;44.224;22.528;2022-07-29T02:28:36;538.10;2406.40
66831;DHT22;53739;44.224;22.528;2022-07-29T02:31:07;538.20;2406.40
66831;DHT22;53739;44.224;22.528;2022-07-29T02:33:34;538.20;2406.40
66831;DHT22;53739;44.224;22.528;2022-07-29T02:36:02;538.20;2406.40
66831;DHT22;53739;44.224;22.528;2022-07-29T02:38:28;538.40;2406.40
66831;DHT22;53739;44.224;22.528;2022-07-29T02:41:22;538.20;2406.40
66831;DHT22;53739;44.224;22.528;2022-07-29T02:43:54;538.30;2406.40
66831;DHT22;53739;44.224;22.528;2022-07-29T02:46:30;538.40;2406.40
66831;DHT22;53739;44.224;22.528;2022-07-29T02:51:58;538.30;2406.40
66831;DHT22;53739;44.224;22.528;2022-07-29T02:54:39;538.40;2406.40
66831;DHT22;53739;44.224;22.528;2022-07-29T02:59:57;538.50;2150.40
66831;DHT22;53739;44.224;22.528;2022-07-29T03:02:25;538.50;2406.40
66831;DHT22;53739;44.224;22.528;2022-07-29T03:04:53;563.20;2432.00
66831;DHT22;53739;44.224;22.528;2022-07-29T03:07:21;563.30;2432.00
66831;DHT22;53739;44.224;22.528;2022-07-29T03:09:52;563.20;2432.00
66831;DHT22;53739;44.224;22.528;2022-07-29T03:12:19;563.30;2432.00
66831;DHT22;53739;44.224;22.528;2022-07-29T03:14:46;538.20;2406.40
66831;DHT22;53739;44.224;22.528;2022-07-29T03:17:13;538.30;2406.40
66831;DHT22;53739;44.224;22.528;2022-07-29T03:19:39;538.30;2406.40
66831;DHT22;53739;44.224;22.528;2022-07-29T03:22:08;538.30;2406.40
66831;DHT22;53739;44.224;22.528;2022-07-29T03:24:36;538.40;2406.40
66831;DHT22;53739;44.224;22.528;2022-07-29T03:27:04;538.50;2406.40
66831;DHT22;53739;44.224;22.528;2022-07-29T03:29:31;538.30;2406.40
66831;DHT22;53739;44.224;22.528;2022-07-29T03:31:57;538.00;2406.40
66831;DHT22;53739;44.224;22.528;2022-07-29T03:34:23;538.10;2406.40
66831;DHT22;53739;44.224;22.528;2022-07-29T03:36:49;538.00;2406.40
66831;DHT22;53739;44.224;22.528;2022-07-29T03:39:20;538.10;2406.40
66831;DHT22;53739;44.224;22.528;2022-07-29T03:41:49;538.30;2406.40
66831;DHT22;53739;44.224;22.528;2022-07-29T03:44:16;538.40;2406.40
66831;DHT22;53739;44.224;22.528;2022-07-29T03:46:44;538.40;2406.40
66831;DHT22;53739;44.224;22.528;2022-07-29T03:49:12;538.40;2406.40
66831;DHT22;53739;44.224;22.528;2022-07-29T03:51:40;538.40;2406.40
66831;DHT22;53739;44.224;22.528;2022-07-29T03:54:06;538.40;2406.40
66831;DHT22;53739;44.224;22.528;2022-07-29T03:56:34;538.50;2406.40
66831;DHT22;53739;44.224;22.528;2022-07-29T03:59:01;538.50;2406.40
66831;DHT22;53739;44.224;22.528;2022-07-29T04:01:29;538.50;2406.40
66831;DHT22;53739;44.224;22.528;2022-07-29T04:03:55;563.20;2432.00
66831;DHT22;53739;44.224;22.528;2022-07-29T04:06:22;563.30;2432.00
66831;DHT22;53739;44.224;22.528;2022-07-29T04:08:48;563.40;2432.00
66831;DHT22;53739;44.224;22.528;2022-07-29T04:11:13;563.60;2432.00
66831;DHT22;53739;44.224;22.528;2022-07-29T04:13:39;563.60;2432.00
66831;DHT22;53739;44.224;22.528;2022-07-29T04:16:05;563.40;2432.00
66831;DHT22;53739;44.224;22.528;2022-07-29T04:18:31;563.50;2432.00
66831;DHT22;53739;44.224;22.528;2022-07-29T04:20:57;563.50;2432.00
66831;DHT22;53739;44.224;22.528;2022-07-29T04:23:27;563.60;2432.00
66831;DHT22;53739;44.224;22.528;2022-07-29T04:25:52;563.60;2432.00
66831;DHT22;53739;44.224;22.528;2022-07-29T04:28:18;563.60;2432.00
66831;DHT22;53739;44.224;22.528;2022-07-29T04:30:44;563.70;2432.00
66831;DHT22;53739;44.224;22.528;2022-07-29T04:33:10;563.80;2432.00
66831;DHT22;53739;44.224;22.528;2022-07-29T04:35:37;563.90;2432.00
66831;DHT22;53739;44.224;22.528;2022-07-29T04:38:04;564.00;2432.00
66831;DHT22;53739;44.224;22.528;2022-07-29T04:40:30;564.00;2432.00
66831;DHT22;53739;44.224;22.528;2022-07-29T04:42:59;564.00;2432.00
66831;DHT22;53739;44.224;22.528;2022-07-29T04:45:25;564.10;2432.00
66831;DHT22;53739;44.224;22.528;2022-07-29T04:47:51;564.10;2432.00
66831;DHT22;53739;44.224;22.528;2022-07-29T04:50:17;564.00;2432.00
66831;DHT22;53739;44.224;22.528;2022-07-29T04:52:43;564.10;2432.00
66831;DHT22;53739;44.224;22.528;2022-07-29T04:55:09;564.10;2432.00
66831;DHT22;53739;44.224;22.528;2022-07-29T04:57:35;588.80;2432.00
66831;DHT22;53739;44.224;22.528;2022-07-29T05:00:01;588.80;2432.00
66831;DHT22;53739;44.224;22.528;2022-07-29T05:02:27;588.80;2432.00
66831;DHT22;53739;44.224;22.528;2022-07-29T05:04:53;588.90;2432.00
66831;DHT22;53739;44.224;22.528;2022-07-29T05:07:19;588.90;2432.00
66831;DHT22;53739;44.224;22.528;2022-07-29T05:09:44;589.00;2432.00
66831;DHT22;53739;44.224;22.528;2022-07-29T05:12:10;589.00;2432.00
66831;DHT22;53739;44.224;22.528;2022-07-29T05:14:37;589.10;2432.00
66831;DHT22;53739;44.224;22.528;2022-07-29T05:17:03;589.20;2432.00
66831;DHT22;53739;44.224;22.528;2022-07-29T05:19:29;589.50;2432.00
66831;DHT22;53739;44.224;22.528;2022-07-29T05:21:54;589.50;2432.00
66831;DHT22;53739;44.224;22.528;2022-07-29T05:24:20;589.60;2432.00
66831;DHT22;53739;44.224;22.528;2022-07-29T05:26:46;589.70;2432.00
66831;DHT22;53739;44.224;22.528;2022-07-29T05:29:12;589.70;2432.00
66831;DHT22;53739;44.224;22.528;2022-07-29T05:31:38;614.50;2432.00
66831;DHT22;53739;44.224;22.528;2022-07-29T05:34:04;614.60;2380.80
66831;DHT22;53739;44.224;22.528;2022-07-29T05:36:29;614.60;2432.00
66831;DHT22;53739;44.224;22.528;2022-07-29T05:38:55;614.80;2227.20
66831;DHT22;53739;44.224;22.528;2022-07-29T05:41:21;615.00;2329.60
66831;DHT22;53739;44.224;22.528;2022-07-29T05:43:47;615.10;2432.00
66831;DHT22;53739;44.224;22.528;2022-07-29T05:46:13;640.00;2124.80
66831;DHT22;53739;44.224;22.528;2022-07-29T05:48:39;640.10;2432.00
66831;DHT22;53739;44.224;22.528;2022-07-29T05:51:05;640.40;2432.00
66831;DHT22;53739;44.224;22.528;2022-07-29T05:53:31;640.40;2432.00
66831;DHT22;53739;44.224;22.528;2022-07-29T05:55:57;640.20;2432.00
66831;DHT22;53739;44.224;22.528;2022-07-29T05:58:23;640.20;2432.00
66831;DHT22;53739;44.224;22.528;2022-07-29T06:00:51;640.10;2432.00
66831;DHT22;53739;44.224;22.528;2022-07-29T06:03:18;640.10;2432.00
66831;DHT22;53739;44.224;22.528;2022-07-29T06:05:44;640.10;2432.00
66831;DHT22;53739;44.224;22.528;2022-07-29T06:08:09;640.10;2432.00
66831;DHT22;53739;44.224;22.528;2022-07-29T06:10:35;640.10;2432.00
66831;DHT22;53739;44.224;22.528;2022-07-29T06:13:01;640.10;2432.00
66831;DHT22;53739;44.224;22.528;2022-07-29T06:15:27;640.00;2432.00
66831;DHT22;53739;44.224;22.528;2022-07-29T06:17:53;640.00;2432.00
66831;DHT22;53739;44.224;22.528;2022-07-29T06:20:19;640.10;2432.00
66831;DHT22;53739;44.224;22.528;2022-07-29T06:22:45;640.20;2432.00
66831;DHT22;53739;44.224;22.528;2022-07-29T06:25:11;640.40;2432.00
66831;DHT22;53739;44.224;22.528;2022-07-29T06:27:37;640.40;2432.00
66831;DHT22;53739;44.224;22.528;2022-07-29T06:30:03;640.50;2432.00
66831;DHT22;53739;44.224;22.528;2022-07-29T06:32:32;640.40;2432.00
66831;DHT22;53739;44.224;22.528;2022-07-29T06:34:58;640.40;2432.00
66831;DHT22;53739;44.224;22.528;2022-07-29T06:37:24;640.40;2432.00
66831;DHT22;53739;44.224;22.528;2022-07-29T06:39:50;640.20;2432.00
66831;DHT22;53739;44.224;22.528;2022-07-29T06:42:53;640.20;2432.00
66831;DHT22;53739;44.224;22.528;2022-07-29T06:45:19;640.20;2432.00
66831;DHT22;53739;44.224;22.528;2022-07-29T06:47:45;640.20;2432.00
66831;DHT22;53739;44.224;22.528;2022-07-29T06:50:11;640.20;2432.00
66831;DHT22;53739;44.224;22.528;2022-07-29T06:52:38;640.40;2432.00
66831;DHT22;53739;44.224;22.528;2022-07-29T06:55:05;640.40;2432.00
66831;DHT22;53739;44.224;22.528;2022-07-29T06:57:30;640.60;2432.00
66831;DHT22;53739;44.224;22.528;2022-07-29T06:59:56;640.80;2432.00
66831;DHT22;53739;44.224;22.528;2022-07-29T07:02:23;640.90;2432.00
66831;DHT22;53739;44.224;22.528;2022-07-29T07:05:00;665.60;2432.00
66831;DHT22;53739;44.224;22.528;2022-07-29T07:07:26;665.60;2432.00
66831;DHT22;53739;44.224;22.528;2022-07-29T07:09:51;665.60;2432.00
66831;DHT22;53739;44.224;22.528;2022-07-29T07:12:17;665.60;2432.00
66831;DHT22;53739;44.224;22.528;2022-07-29T07:14:43;665.60;2432.00
66831;DHT22;53739;44.224;22.528;2022-07-29T07:17:09;665.60;2432.00
66831;DHT22;53739;44.224;22.528;2022-07-29T07:19:35;665.70;2432.00
66831;DHT22;53739;44.224;22.528;2022-07-29T07:22:01;665.80;2432.00
66831;DHT22;53739;44.224;22.528;2022-07-29T07:24:26;665.90;2432.00
66831;DHT22;53739;44.224;22.528;2022-07-29T07:26:52;665.80;2432.00
66831;DHT22;53739;44.224;22.528;2022-07-29T07:29:18;665.90;2432.00
66831;DHT22;53739;44.224;22.528;2022-07-29T07:31:44;666.00;2432.00
66831;DHT22;53739;44.224;22.528;2022-07-29T07:34:10;666.20;2432.00
66831;DHT22;53739;44.224;22.528;2022-07-29T07:36:36;666.50;2432.00
66831;DHT22;53739;44.224;22.528;2022-07-29T07:39:05;691.30;2432.00
66831;DHT22;53739;44.224;22.528;2022-07-29T07:41:31;691.50;2432.00
66831;DHT22;53739;44.224;22.528;2022-07-29T07:43:56;691.80;2432.00
66831;DHT22;53739;44.224;22.528;2022-07-29T07:46:37;691.90;2432.00
66831;DHT22;53739;44.224;22.528;2022-07-29T07:49:16;716.80;2432.00
66831;DHT22;53739;44.224;22.528;2022-07-29T07:51:42;717.10;2432.00
66831;DHT22;53739;44.224;22.528;2022-07-29T07:54:11;717.50;2432.00
66831;DHT22;53739;44.224;22.528;2022-07-29T07:56:36;717.70;2432.00
66831;DHT22;53739;44.224;22.528;2022-07-29T07:59:04;742.50;2432.00
66831;DHT22;53739;44.224;22.528;2022-07-29T08:01:30;742.70;2432.00
66831;DHT22;53739;44.224;22.528;2022-07-29T08:03:59;742.40;2432.00
66831;DHT22;53739;44.224;22.528;2022-07-29T08:06:30;742.40;2432.00
66831;DHT22;53739;44.224;22.528;2022-07-29T08:09:12;717.60;2432.00
66831;DHT22;53739;44.224;22.528;2022-07-29T08:11:46;717.40;2432.00
66831;DHT22;53739;44.224;22.528;2022-07-29T08:14:20;717.20;2432.00
66831;DHT22;53739;44.224;22.528;2022-07-29T08:16:55;717.40;2432.00
66831;DHT22;53739;44.224;22.528;2022-07-29T08:19:21;717.60;2432.00
66831;DHT22;53739;44.224;22.528;2022-07-29T08:21:47;717.60;2432.00
66831;DHT22;53739;44.224;22.528;2022-07-29T08:24:13;717.40;2432.00
66831;DHT22;53739;44.224;22.528;2022-07-29T08:26:57;717.20;2432.00
66831;DHT22;53739;44.224;22.528;2022-07-29T08:29:32;717.10;2432.00
66831;DHT22;53739;44.224;22.528;2022-07-29T08:32:01;716.90;2432.00
66831;DHT22;53739;44.224;22.528;2022-07-29T08:34:50;716.90;2432.00
66831;DHT22;53739;44.224;22.528;2022-07-29T08:47:27;742.80;2432.00
66831;DHT22;53739;44.224;22.528;2022-07-29T08:54:03;742.70;2432.00
66831;DHT22;53739;44.224;22.528;2022-07-29T08:56:32;742.90;2432.00
66831;DHT22;53739;44.224;22.528;2022-07-29T08:58:59;743.10;2432.00
66831;DHT22;53739;44.224;22.528;2022-07-29T09:01:29;768.00;2432.00
66831;DHT22;53739;44.224;22.528;2022-07-29T09:06:43;768.40;2432.00
66831;DHT22;53739;44.224;22.528;2022-07-29T09:09:09;768.10;2432.00
66831;DHT22;53739;44.224;22.528;2022-07-29T09:11:35;768.30;2432.00
66831;DHT22;53739;44.224;22.528;2022-07-29T09:14:02;768.50;2432.00
66831;DHT22;53739;44.224;22.528;2022-07-29T09:16:47;768.50;2432.00
66831;DHT22;53739;44.224;22.528;2022-07-29T09:19:35;768.10;2432.00
66831;DHT22;53739;44.224;22.528;2022-07-29T09:22:06;743.20;2432.00
66831;DHT22;53739;44.224;22.528;2022-07-29T09:24:39;743.30;2432.00
66831;DHT22;53739;44.224;22.528;2022-07-29T09:27:26;768.10;2432.00
66831;DHT22;53739;44.224;22.528;2022-07-29T09:30:09;768.10;2432.00
66831;DHT22;53739;44.224;22.528;2022-07-29T09:33:00;768.10;2432.00
66831;DHT22;53739;44.224;22.528;2022-07-29T09:35:27;743.30;2432.00
66831;DHT22;53739;44.224;22.528;2022-07-29T09:38:10;768.00;2432.00
66831;DHT22;53739;44.224;22.528;2022-07-29T09:40:39;743.10;2432.00
66831;DHT22;53739;44.224;22.528;2022-07-29T09:43:14;743.10;2432.00
66831;DHT22;53739;44.224;22.528;2022-07-29T09:45:40;768.10;2432.00
66831;DHT22;53739;44.224;22.528;2022-07-29T09:48:24;768.00;2432.00
66831;DHT22;53739;44.224;22.528;2022-07-29T09:50:50;768.10;2432.00
66831;DHT22;53739;44.224;22.528;2022-07-29T09:53:35;768.30;2432.00
66831;DHT22;53739;44.224;22.528;2022-07-29T09:56:09;768.20;2432.00
66831;DHT22;53739;44.224;22.528;2022-07-29T09:58:36;768.10;2432.00
66831;DHT22;53739;44.224;22.528;2022-07-29T10:01:02;768.10;2432.00
66831;DHT22;53739;44.224;22.528;2022-07-29T10:03:31;768.10;2432.00
66831;DHT22;53739;44.224;22.528;2022-07-29T10:06:06;768.10;2432.00
66831;DHT22;53739;44.224;22.528;2022-07-29T10:08:41;768.50;2432.00
66831;DHT22;53739;44.224;22.528;2022-07-29T10:11:15;768.80;2432.00
66831;DHT22;53739;44.224;22.528;2022-07-29T10:13:43;768.80;2432.00
66831;DHT22;53739;44.224;22.528;2022-07-29T10:16:15;768.60;2432.00
66831;DHT22;53739;44.224;22.528;2022-07-29T10:18:46;793.60;2432.00
66831;DHT22;53739;44.224;22.528;2022-07-29T10:21:13;794.00;2432.00
66831;DHT22;53739;44.224;22.528;2022-07-29T10:23:39;794.20;2432.00
66831;DHT22;53739;44.224;22.528;2022-07-29T10:26:06;794.50;2432.00
66831;DHT22;53739;44.224;22.528;2022-07-29T10:55:39;819.60;2432.00
66831;DHT22;53739;44.224;22.528;2022-07-29T10:58:14;794.50;2432.00
66831;DHT22;53739;44.224;22.528;2022-07-29T11:00:43;794.20;2432.00
66831;DHT22;53739;44.224;22.528;2022-07-29T11:03:10;794.20;2432.00
66831;DHT22;53739;44.224;22.528;2022-07-29T11:06:01;794.50;2432.00
66831;DHT22;53739;44.224;22.528;2022-07-29T11:08:29;819.50;2432.00
66831;DHT22;53739;44.224;22.528;2022-07-29T11:11:31;819.80;2432.00
66831;DHT22;53739;44.224;22.528;2022-07-29T11:14:03;820.10;2432.00
66831;DHT22;53739;44.224;22.528;2022-07-29T11:17:01;820.00;2432.00
66831;DHT22;53739;44.224;22.528;2022-07-29T11:32:13;844.90;2432.00
66831;DHT22;53739;44.224;22.528;2022-07-29T11:34:48;844.80;2432.00
66831;DHT22;53739;44.224;22.528;2022-07-29T11:37:15;820.10;2432.00
66831;DHT22;53739;44.224;22.528;2022-07-29T11:47:37;844.80;2432.00
66831;DHT22;53739;44.224;22.528;2022-07-29T11:50:08;844.80;2432.00
66831;DHT22;53739;44.224;22.528;2022-07-29T11:52:45;845.00;2432.00
66831;DHT22;53739;44.224;22.528;2022-07-29T11:55:14;845.20;2432.00
66831;DHT22;53739;44.224;22.528;2022-07-29T11:57:54;845.20;2432.00
66831;DHT22;53739;44.224;22.528;2022-07-29T12:00:27;844.90;2432.00
66831;DHT22;53739;44.224;22.528;2022-07-29T12:02:53;845.10;2432.00
66831;DHT22;53739;44.224;22.528;2022-07-29T12:05:19;844.90;2432.00
66831;DHT22;53739;44.224;22.528;2022-07-29T12:07:48;820.10;2432.00
66831;DHT22;53739;44.224;22.528;2022-07-29T12:10:15;844.90;2432.00
66831;DHT22;53739;44.224;22.528;2022-07-29T12:12:41;844.80;2432.00
66831;DHT22;53739;44.224;22.528;2022-07-29T12:15:17;844.80;2432.00
66831;DHT22;53739;44.224;22.528;2022-07-29T12:17:46;820.00;2432.00
66831;DHT22;53739;44.224;22.528;2022-07-29T12:20:12;820.00;2432.00
66831;DHT22;53739;44.224;22.528;2022-07-29T12:22:40;819.80;2432.00
66831;DHT22;53739;44.224;22.528;2022-07-29T12:25:11;820.10;2432.00
66831;DHT22;53739;44.224;22.528;2022-07-29T12:27:38;844.80;2432.00
66831;DHT22;53739;44.224;22.528;2022-07-29T12:30:06;844.90;2432.00
66831;DHT22;53739;44.224;22.528;2022-07-29T12:35:03;844.90;2432.00
66831;DHT22;53739;44.224;22.528;2022-07-29T12:37:30;845.10;2432.00
66831;DHT22;53739;44.224;22.528;2022-07-29T12:39:57;845.30;2432.00
66831;DHT22;53739;44.224;22.528;2022-07-29T12:42:22;845.40;2432.00
66831;DHT22;53739;44.224;22.528;2022-07-29T12:44:50;845.10;2432.00
66831;DHT22;53739;44.224;22.528;2022-07-29T12:47:17;845.30;2432.00
66831;DHT22;53739;44.224;22.528;2022-07-29T12:49:44;845.30;2432.00
66831;DHT22;53739;44.224;22.528;2022-07-29T12:52:27;845.60;2432.00
66831;DHT22;53739;44.224;22.528;2022-07-29T12:54:53;845.70;2432.00
66831;DHT22;53739;44.224;22.528;2022-07-29T12:57:19;845.70;2432.00
66831;DHT22;53739;44.224;22.528;2022-07-29T12:59:57;870.40;2432.00
66831;DHT22;53739;44.224;22.528;2022-07-29T13:02:23;870.40;2432.00
66831;DHT22;53739;44.224;22.528;2022-07-29T13:04:57;870.40;2432.00
66831;DHT22;53739;44.224;22.528;2022-07-29T13:07:26;870.50;2432.00
66831;DHT22;53739;44.224;22.528;2022-07-29T13:09:52;870.50;2406.40
66831;DHT22;53739;44.224;22.528;2022-07-29T13:12:18;870.60;2329.60
66831;DHT22;53739;44.224;22.528;2022-07-29T13:14:46;870.50;2432.00
66831;DHT22;53739;44.224;22.528;2022-07-29T13:19:46;845.40;2329.60
66831;DHT22;53739;44.224;22.528;2022-07-29T13:22:15;845.50;2355.20
66831;DHT22;53739;44.224;22.528;2022-07-29T13:24:50;845.40;2278.40
66831;DHT22;53739;44.224;22.528;2022-07-29T13:27:18;845.20;2329.60
66831;DHT22;53739;44.224;22.528;2022-07-29T13:29:45;845.20;2380.80
66831;DHT22;53739;44.224;22.528;2022-07-29T13:32:11;845.40;2380.80
66831;DHT22;53739;44.224;22.528;2022-07-29T13:34:37;845.50;2355.20
66831;DHT22;53739;44.224;22.528;2022-07-29T13:37:03;845.70;2432.00
66831;DHT22;53739;44.224;22.528;2022-07-29T13:39:29;870.40;2432.00
66831;DHT22;53739;44.224;22.528;2022-07-29T13:41:55;870.50;2432.00
66831;DHT22;53739;44.224;22.528;2022-07-29T13:44:21;870.60;2380.80
66831;DHT22;53739;44.224;22.528;2022-07-29T13:46:47;870.60;2304.00
66831;DHT22;53739;44.224;22.528;2022-07-29T13:49:13;870.60;2252.80
66831;DHT22;53739;44.224;22.528;2022-07-29T13:51:39;870.50;2252.80
66831;DHT22;53739;44.224;22.528;2022-07-29T13:54:05;845.70;2278.40
66831;DHT22;53739;44.224;22.528;2022-07-29T13:56:31;845.70;2355.20
66831;DHT22;53739;44.224;22.528;2022-07-29T13:58:57;845.70;2252.80
66831;DHT22;53739;44.224;22.528;2022-07-29T14:01:23;845.40;2252.80
66831;DHT22;53739;44.224;22.528;2022-07-29T14:03:49;845.50;2304.00
66831;DHT22;53739;44.224;22.528;2022-07-29T14:06:15;870.40;2304.00
66831;DHT22;53739;44.224;22.528;2022-07-29T14:08:41;870.50;2227.20
66831;DHT22;53739;44.224;22.528;2022-07-29T14:11:07;870.50;2304.00
66831;DHT22;53739;44.224;22.528;2022-07-29T14:13:33;870.60;2278.40
66831;DHT22;53739;44.224;22.528;2022-07-29T14:15:59;870.50;2201.60
66831;DHT22;53739;44.224;22.528;2022-07-29T14:18:24;870.50;2150.40
66831;DHT22;53739;44.224;22.528;2022-07-29T14:20:50;870.50;2278.40
66831;DHT22;53739;44.224;22.528;2022-07-29T14:23:17;870.60;2227.20
66831;DHT22;53739;44.224;22.528;2022-07-29T14:25:42;870.60;2227.20
66831;DHT22;53739;44.224;22.528;2022-07-29T14:28:08;870.70;2176.00
66831;DHT22;53739;44.224;22.528;2022-07-29T14:30:34;870.70;2124.80
66831;DHT22;53739;44.224;22.528;2022-07-29T14:33:00;870.60;2304.00
66831;DHT22;53739;44.224;22.528;2022-07-29T14:35:26;870.60;2252.80
66831;DHT22;53739;44.224;22.528;2022-07-29T14:37:52;870.60;2150.40
66831;DHT22;53739;44.224;22.528;2022-07-29T14:40:17;870.60;2150.40
66831;DHT22;53739;44.224;22.528;2022-07-29T14:42:43;870.70;2150.40
66831;DHT22;53739;44.224;22.528;2022-07-29T14:45:10;870.60;2124.80
66831;DHT22;53739;44.224;22.528;2022-07-29T14:47:37;870.70;2124.80
66831;DHT22;53739;44.224;22.528;2022-07-29T14:50:04;870.70;2150.40
66831;DHT22;53739;44.224;22.528;2022-07-29T14:52:30;870.60;2073.60
66831;DHT22;53739;44.224;22.528;2022-07-29T14:54:56;870.60;2124.80
66831;DHT22;53739;44.224;22.528;2022-07-29T14:57:22;870.60;2150.40
66831;DHT22;53739;44.224;22.528;2022-07-29T14:59:48;870.50;2099.20
66831;DHT22;53739;44.224;22.528;2022-07-29T15:02:13;870.40;2176.00
66831;DHT22;53739;44.224;22.528;2022-07-29T15:04:39;870.40;2176.00
66831;DHT22;53739;44.224;22.528;2022-07-29T15:07:05;870.50;2176.00
66831;DHT22;53739;44.224;22.528;2022-07-29T15:09:31;870.50;2329.60
66831;DHT22;53739;44.224;22.528;2022-07-29T15:11:57;870.50;2406.40
66831;DHT22;53739;44.224;22.528;2022-07-29T15:14:23;845.70;2380.80
66831;DHT22;53739;44.224;22.528;2022-07-29T15:16:49;870.40;2278.40
66831;DHT22;53739;44.224;22.528;2022-07-29T15:19:15;870.40;2252.80
66831;DHT22;53739;44.224;22.528;2022-07-29T15:21:41;870.40;2304.00
66831;DHT22;53739;44.224;22.528;2022-07-29T15:24:07;870.40;2406.40
66831;DHT22;53739;44.224;22.528;2022-07-29T15:26:33;870.40;2201.60
66831;DHT22;53739;44.224;22.528;2022-07-29T15:28:59;845.50;2201.60
66831;DHT22;53739;44.224;22.528;2022-07-29T15:31:25;845.40;2176.00
66831;DHT22;53739;44.224;22.528;2022-07-29T15:33:51;845.40;2227.20
66831;DHT22;53739;44.224;22.528;2022-07-29T15:36:17;845.40;2227.20
66831;DHT22;53739;44.224;22.528;2022-07-29T15:38:43;845.50;2304.00
66831;DHT22;53739;44.224;22.528;2022-07-29T15:41:13;845.50;2278.40
66831;DHT22;53739;44.224;22.528;2022-07-29T15:43:43;845.40;2252.80
66831;DHT22;53739;44.224;22.528;2022-07-29T15:46:13;845.30;2252.80
66831;DHT22;53739;44.224;22.528;2022-07-29T15:48:57;845.20;2278.40
66831;DHT22;53739;44.224;22.528;2022-07-29T15:51:23;845.20;2304.00
66831;DHT22;53739;44.224;22.528;2022-07-29T15:53:49;845.20;2432.00
66831;DHT22;53739;44.224;22.528;2022-07-29T15:56:15;845.10;2329.60
66831;DHT22;53739;44.224;22.528;2022-07-29T15:58:42;844.90;2304.00
66831;DHT22;53739;44.224;22.528;2022-07-29T16:01:08;844.80;2304.00
66831;DHT22;53739;44.224;22.528;2022-07-29T16:03:34;820.10;2329.60
66831;DHT22;53739;44.224;22.528;2022-07-29T16:05:59;820.10;2304.00
66831;DHT22;53739;44.224;22.528;2022-07-29T16:08:25;820.10;2304.00
66831;DHT22;53739;44.224;22.528;2022-07-29T16:10:51;820.10;2355.20
66831;DHT22;53739;44.224;22.528;2022-07-29T16:13:17;820.10;2355.20
66831;DHT22;53739;44.224;22.528;2022-07-29T16:15:43;820.10;2355.20
66831;DHT22;53739;44.224;22.528;2022-07-29T16:18:09;820.00;2380.80
66831;DHT22;53739;44.224;22.528;2022-07-29T16:20:36;820.00;2355.20
66831;DHT22;53739;44.224;22.528;2022-07-29T16:23:02;819.80;2432.00
66831;DHT22;53739;44.224;22.528;2022-07-29T16:25:28;819.80;2432.00
66831;DHT22;53739;44.224;22.528;2022-07-29T16:27:54;819.70;2355.20
66831;DHT22;53739;44.224;22.528;2022-07-29T16:30:19;819.70;2355.20
66831;DHT22;53739;44.224;22.528;2022-07-29T16:32:47;819.70;2380.80
66831;DHT22;53739;44.224;22.528;2022-07-29T16:35:13;819.60;2380.80
66831;DHT22;53739;44.224;22.528;2022-07-29T16:37:39;819.60;2355.20
66831;DHT22;53739;44.224;22.528;2022-07-29T16:40:06;819.60;2432.00
66831;DHT22;53739;44.224;22.528;2022-07-29T16:42:33;819.60;2432.00
66831;DHT22;53739;44.224;22.528;2022-07-29T16:45:00;819.60;2380.80
66831;DHT22;53739;44.224;22.528;2022-07-29T16:47:25;819.60;2304.00
66831;DHT22;53739;44.224;22.528;2022-07-29T16:49:51;819.60;2278.40
66831;DHT22;53739;44.224;22.528;2022-07-29T16:52:17;819.50;2278.40
66831;DHT22;53739;44.224;22.528;2022-07-29T16:54:43;819.50;2304.00
66831;DHT22;53739;44.224;22.528;2022-07-29T16:57:09;819.30;2304.00
66831;DHT22;53739;44.224;22.528;2022-07-29T16:59:36;819.30;2329.60
66831;DHT22;53739;44.224;22.528;2022-07-29T17:02:02;794.50;2406.40
66831;DHT22;53739;44.224;22.528;2022-07-29T17:04:29;794.40;2380.80
66831;DHT22;53739;44.224;22.528;2022-07-29T17:06:55;794.20;2380.80
66831;DHT22;53739;44.224;22.528;2022-07-29T17:09:23;794.20;2432.00
66831;DHT22;53739;44.224;22.528;2022-07-29T17:11:49;794.20;2432.00
66831;DHT22;53739;44.224;22.528;2022-07-29T17:14:19;794.10;2432.00
66831;DHT22;53739;44.224;22.528;2022-07-29T17:16:44;794.00;2432.00
66831;DHT22;53739;44.224;22.528;2022-07-29T17:19:10;793.90;2432.00
66831;DHT22;53739;44.224;22.528;2022-07-29T17:21:37;793.90;2432.00
66831;DHT22;53739;44.224;22.528;2022-07-29T17:24:03;793.70;2432.00
66831;DHT22;53739;44.224;22.528;2022-07-29T17:26:28;793.70;2432.00
66831;DHT22;53739;44.224;22.528;2022-07-29T17:28:54;793.70;2432.00
66831;DHT22;53739;44.224;22.528;2022-07-29T17:31:20;768.90;2432.00
66831;DHT22;53739;44.224;22.528;2022-07-29T17:33:46;768.90;2432.00
66831;DHT22;53739;44.224;22.528;2022-07-29T17:36:12;768.80;2432.00
66831;DHT22;53739;44.224;22.528;2022-07-29T17:39:04;768.70;2432.00
66831;DHT22;53739;44.224;22.528;2022-07-29T17:41:31;768.30;2432.00
66831;DHT22;53739;44.224;22.528;2022-07-29T17:43:57;768.40;2432.00
66831;DHT22;53739;44.224;22.528;2022-07-29T17:46:24;768.10;2432.00
66831;DHT22;53739;44.224;22.528;2022-07-29T17:48:52;768.10;2432.00
66831;DHT22;53739;44.224;22.528;2022-07-29T17:51:20;768.10;2432.00
66831;DHT22;53739;44.224;22.528;2022-07-29T17:53:46;768.00;2432.00
66831;DHT22;53739;44.224;22.528;2022-07-29T17:56:12;743.30;2432.00
66831;DHT22;53739;44.224;22.528;2022-07-29T17:58:38;743.20;2432.00
66831;DHT22;53739;44.224;22.528;2022-07-29T18:01:04;743.10;2432.00
66831;DHT22;53739;44.224;22.528;2022-07-29T18:03:30;743.00;2432.00
66831;DHT22;53739;44.224;22.528;2022-07-29T18:05:57;743.00;2432.00
66831;DHT22;53739;44.224;22.528;2022-07-29T18:08:23;743.00;2432.00